Time;durP1;ratioP1;P1;durP2;ratioP2;P2;SDS_P1;SDS_P2;PMS_P1;PMS_P2;Temp;Humidity;BMP_temperature;BMP_pressure;BME280_temperature;BME280_humidity;BME280_pressure;Samples;Min_cycle;Max_cycle;Signal;HPM_P1;HPM_P2
2021/12/21 15:45:39;;;;;;;8.95;1.85;;;19.70;46.60;;;;;;5156564;27;20546;-84
2021/12/21 15:48:06;;;;;;;6.93;1.70;;;19.60;47.30;;;;;;5156217;27;20158;-81
2021/12/21 15:50:35;;;;;;;5.82;1.48;;;19.60;47.60;;;;;;5156129;27;20215;-85
2021/12/21 15:53:03;;;;;;;7.47;1.60;;;19.70;47.60;;;;;;5140637;27;20257;-84
2021/12/21 15:55:28;;;;;;;7.15;1.60;;;19.70;47.50;;;;;;5126984;28;20179;-84
2021/12/21 15:57:54;;;;;;;6.15;1.45;;;19.70;47.70;;;;;;5102000;28;20168;-84
2021/12/21 16:00:20;;;;;;;6.63;1.88;;;19.70;47.20;;;;;;5102153;28;20163;-83
2021/12/21 16:02:46;;;;;;;3.67;1.50;;;19.60;47.50;;;;;;5126019;27;20159;-83
2021/12/21 16:05:12;;;;;;;9.02;2.00;;;19.60;47.10;;;;;;5118860;28;20533;-85
2021/12/21 16:07:38;;;;;;;8.85;1.70;;;19.70;47.20;;;;;;5124165;27;20178;-85
2021/12/21 16:10:08;;;;;;;5.90;1.60;;;19.70;47.30;;;;;;5141020;27;20151;-84
2021/12/21 16:12:35;;;;;;;12.90;2.00;;;19.60;46.20;;;;;;5126386;27;20155;-84
2021/12/21 16:15:07;;;;;;;7.13;1.83;;;19.60;47.00;;;;;;5159424;27;20163;-84
2021/12/21 16:17:32;;;;;;;8.25;1.60;;;19.70;47.10;;;;;;5140720;27;20188;-86
2021/12/21 16:19:58;;;;;;;7.25;1.80;;;19.60;47.10;;;;;;5155183;27;20163;-85
2021/12/21 16:22:24;;;;;;;5.72;1.60;;;19.60;46.90;;;;;;5125712;27;20311;-85
2021/12/21 16:24:51;;;;;;;5.10;1.63;;;19.70;46.70;;;;;;5140500;27;20194;-84
2021/12/21 16:27:16;;;;;;;6.28;1.50;;;19.70;46.90;;;;;;5121544;27;20182;-85
2021/12/21 16:29:42;;;;;;;7.00;1.90;;;19.70;46.10;;;;;;5136395;27;20151;-84
2021/12/21 16:32:11;;;;;;;12.63;1.70;;;19.70;47.00;;;;;;5155241;27;20653;-85
2021/12/21 16:34:38;;;;;;;7.40;1.90;;;19.70;47.20;;;;;;5154663;27;20219;-84
2021/12/21 16:37:04;;;;;;;6.63;1.77;;;19.70;47.20;;;;;;5122088;27;20177;-82
2021/12/21 16:39:30;;;;;;;4.60;1.83;;;19.70;47.70;;;;;;5157628;27;20143;-82
2021/12/21 16:41:57;;;;;;;3.45;1.52;;;19.70;47.80;;;;;;5138311;27;20163;-85
2021/12/21 16:44:23;;;;;;;9.27;2.10;;;19.70;47.50;;;;;;5138403;27;20222;-85
2021/12/21 16:46:49;;;;;;;9.65;1.88;;;19.70;48.10;;;;;;5120512;27;20173;-84
2021/12/21 16:49:16;;;;;;;6.07;1.73;;;19.80;48.20;;;;;;5154338;27;20222;-84
2021/12/21 16:51:42;;;;;;;7.65;1.83;;;19.70;47.70;;;;;;5157077;27;20155;-83
2021/12/21 16:54:08;;;;;;;8.80;1.63;;;19.70;48.10;;;;;;5135738;27;20174;-84
2021/12/21 16:56:35;;;;;;;6.60;1.70;;;19.80;48.30;;;;;;5125283;27;20199;-84
2021/12/21 16:59:02;;;;;;;5.35;1.70;;;19.70;48.00;;;;;;5104305;27;20171;-85
2021/12/21 17:01:27;;;;;;;6.28;1.40;;;19.60;48.10;;;;;;5103032;27;20171;-83
2021/12/21 17:03:53;;;;;;;7.43;1.67;;;19.70;48.90;;;;;;5122496;27;20286;-86
2021/12/21 17:06:19;;;;;;;7.53;2.00;;;19.70;48.50;;;;;;5138323;27;20152;-84
2021/12/21 17:08:45;;;;;;;6.15;1.75;;;19.80;49.40;;;;;;5103440;27;20189;-84
2021/12/21 17:11:13;;;;;;;9.57;2.10;;;19.70;48.90;;;;;;5138654;27;20175;-84
2021/12/21 17:13:40;;;;;;;9.15;2.13;;;19.80;49.10;;;;;;5122454;27;20203;-85
2021/12/21 17:16:06;;;;;;;3.80;1.52;;;19.80;49.10;;;;;;5106075;27;20215;-86
2021/12/21 17:18:36;;;;;;;8.82;1.77;;;19.80;48.80;;;;;;5109331;27;20163;-85
2021/12/21 17:21:01;;;;;;;8.60;1.75;;;19.90;48.70;;;;;;5122471;27;20272;-84
2021/12/21 17:23:27;;;;;;;8.93;1.75;;;19.90;48.70;;;;;;5122243;27;20600;-85
2021/12/21 17:25:54;;;;;;;9.60;1.70;;;19.80;49.00;;;;;;5140710;27;20156;-85
2021/12/21 17:28:21;;;;;;;10.75;2.22;;;19.80;49.20;;;;;;5106209;27;20167;-84
2021/12/21 17:30:47;;;;;;;10.23;1.80;;;19.80;49.40;;;;;;5105424;27;20184;-83
2021/12/21 17:33:15;;;;;;;5.97;1.50;;;19.80;49.70;;;;;;5140587;27;20511;-83
2021/12/21 17:35:42;;;;;;;11.13;2.10;;;19.80;49.90;;;;;;5121277;27;20175;-83
2021/12/21 17:38:07;;;;;;;9.98;2.28;;;19.80;49.50;;;;;;5138910;27;20270;-84
2021/12/21 17:40:38;;;;;;;11.88;2.20;;;19.80;50.10;;;;;;5122132;27;20155;-84
2021/12/21 17:43:06;;;;;;;9.40;1.80;;;19.80;50.20;;;;;;5106332;27;20577;-85
2021/12/21 17:45:42;;;;;;;15.48;2.40;;;19.80;49.90;;;;;;5122861;27;20279;-83
2021/12/21 17:48:08;;;;;;;8.32;2.05;;;19.80;49.80;;;;;;5103617;27;20234;-84
2021/12/21 17:50:34;;;;;;;10.93;1.80;;;19.80;50.30;;;;;;5136581;27;20308;-84
2021/12/21 17:53:00;;;;;;;25.42;2.47;;;19.80;50.00;;;;;;5119626;27;20176;-82
2021/12/21 17:55:33;;;;;;;19.70;2.20;;;19.80;50.50;;;;;;5105331;27;20163;-84
2021/12/21 17:58:01;;;;;;;16.88;2.78;;;19.80;50.50;;;;;;5139301;27;20595;-85
2021/12/21 18:00:32;;;;;;;25.73;3.15;;;19.70;50.50;;;;;;5122076;27;20172;-84
2021/12/21 18:02:58;;;;;;;23.52;3.00;;;19.70;50.70;;;;;;5121313;27;20250;-84
2021/12/21 18:05:24;;;;;;;29.63;3.35;;;19.70;50.90;;;;;;5100541;27;20223;-84
2021/12/21 18:07:52;;;;;;;34.97;2.90;;;19.80;49.40;;;;;;5116656;27;20175;-82
2021/12/21 18:10:20;;;;;;;33.92;2.78;;;19.80;50.30;;;;;;5106781;27;20191;-85
2021/12/21 18:12:46;;;;;;;28.50;3.10;;;19.80;50.10;;;;;;5122278;27;20148;-84
2021/12/21 18:15:12;;;;;;;26.67;2.90;;;19.90;51.10;;;;;;5119659;27;20152;-84
2021/12/21 18:17:37;;;;;;;18.02;2.63;;;19.80;50.40;;;;;;5121738;27;20140;-84
2021/12/21 18:20:11;;;;;;;23.65;2.63;;;19.80;51.20;;;;;;5142227;27;20449;-82
2021/12/21 18:22:37;;;;;;;22.02;2.50;;;19.70;51.20;;;;;;5104842;27;20174;-84
2021/12/21 18:25:05;;;;;;;24.52;2.45;;;19.80;51.60;;;;;;5102505;27;20251;-84
2021/12/21 18:27:31;;;;;;;18.08;2.33;;;19.70;51.50;;;;;;5136786;27;20186;-84
2021/12/21 18:29:58;;;;;;;21.42;2.78;;;19.70;51.60;;;;;;5138126;27;20156;-85
2021/12/21 18:32:26;;;;;;;10.57;2.17;;;19.80;51.20;;;;;;5119286;27;20152;-85
2021/12/21 18:34:53;;;;;;;13.18;2.53;;;19.70;50.60;;;;;;5121227;27;20208;-85
2021/12/21 18:37:19;;;;;;;14.10;2.67;;;19.70;51.00;;;;;;5121134;27;20288;-85
2021/12/21 18:39:50;;;;;;;20.45;2.47;;;19.70;51.20;;;;;;5104747;27;20163;-84
2021/12/21 18:42:15;;;;;;;18.80;2.50;;;19.70;50.30;;;;;;5155097;27;20288;-84
2021/12/21 18:44:42;;;;;;;16.70;2.75;;;19.70;50.80;;;;;;5152974;27;20230;-84
2021/12/21 18:47:08;;;;;;;16.25;2.47;;;19.70;50.60;;;;;;5118201;27;20147;-85
2021/12/21 18:49:34;;;;;;;12.95;2.72;;;19.70;50.80;;;;;;5103783;27;20501;-85
2021/12/21 18:52:02;;;;;;;20.08;2.85;;;19.60;50.10;;;;;;5121388;27;20231;-84
2021/12/21 18:54:28;;;;;;;19.73;3.10;;;19.60;50.20;;;;;;5121147;27;20221;-84
2021/12/21 18:56:54;;;;;;;21.05;2.67;;;19.60;50.30;;;;;;5103701;27;20353;-85
2021/12/21 18:59:20;;;;;;;27.83;3.40;;;19.60;50.40;;;;;;5118825;27;20179;-83
2021/12/21 19:01:47;;;;;;;20.98;3.10;;;19.60;50.30;;;;;;5119654;27;20166;-84
2021/12/21 19:04:13;;;;;;;27.77;3.30;;;19.60;50.70;;;;;;5118806;27;20175;-83
2021/12/21 19:06:39;;;;;;;22.67;3.05;;;19.60;50.00;;;;;;5103234;27;20171;-84
2021/12/21 19:09:09;;;;;;;23.45;3.17;;;19.60;51.20;;;;;;5117908;27;20231;-84
2021/12/21 19:11:35;;;;;;;22.13;2.92;;;19.60;50.80;;;;;;5119585;27;20151;-84
2021/12/21 19:14:01;;;;;;;24.85;3.08;;;19.60;50.90;;;;;;5118912;27;20227;-84
2021/12/21 19:16:27;;;;;;;26.10;2.97;;;19.60;50.90;;;;;;5118668;27;20182;-85
2021/12/21 19:18:58;;;;;;;25.83;2.63;;;19.60;50.50;;;;;;5120148;27;20147;-84
2021/12/21 19:21:26;;;;;;;34.17;3.28;;;19.60;50.60;;;;;;5119371;27;20198;-84
2021/12/21 19:23:52;;;;;;;23.27;3.13;;;19.60;50.00;;;;;;5120540;27;20194;-84
2021/12/21 19:26:18;;;;;;;25.73;3.67;;;19.60;50.70;;;;;;5101601;27;20186;-84
2021/12/21 19:28:44;;;;;;;24.55;3.20;;;19.60;49.90;;;;;;5138692;27;20529;-85
2021/12/21 19:31:10;;;;;;;22.83;3.25;;;19.60;50.10;;;;;;5105271;27;20232;-85
2021/12/21 19:33:39;;;;;;;21.13;3.08;;;19.60;50.30;;;;;;5136297;27;20152;-84
2021/12/21 19:36:07;;;;;;;23.35;3.33;;;19.60;50.80;;;;;;5104733;27;20262;-83
2021/12/21 19:38:33;;;;;;;21.83;3.20;;;19.60;51.00;;;;;;5122365;28;20615;-84
2021/12/21 19:40:59;;;;;;;23.92;3.35;;;19.60;51.10;;;;;;5103270;28;20247;-84
2021/12/21 19:43:25;;;;;;;22.75;3.30;;;19.60;50.10;;;;;;5117148;28;20194;-86
2021/12/21 19:45:55;;;;;;;15.90;3.08;;;19.60;50.50;;;;;;5099299;28;20171;-84
2021/12/21 19:48:21;;;;;;;23.95;2.92;;;19.50;50.80;;;;;;5118514;28;20234;-85
2021/12/21 19:50:47;;;;;;;23.75;3.00;;;19.50;51.60;;;;;;5117384;28;20187;-84
2021/12/21 19:53:13;;;;;;;21.50;3.47;;;19.50;51.10;;;;;;5117233;28;20607;-84
2021/12/21 19:55:38;;;;;;;23.55;3.13;;;19.60;51.20;;;;;;5117127;28;20152;-84
2021/12/21 19:58:04;;;;;;;24.00;3.20;;;19.50;52.20;;;;;;5117612;28;20155;-84
2021/12/21 20:00:31;;;;;;;26.45;3.10;;;19.50;52.30;;;;;;5100436;28;20171;-84
2021/12/21 20:02:57;;;;;;;21.83;3.13;;;19.50;52.20;;;;;;5117395;28;20201;-84
2021/12/21 20:05:22;;;;;;;25.40;3.35;;;19.50;51.00;;;;;;5116089;28;20192;-84
2021/12/21 20:07:48;;;;;;;18.60;2.78;;;19.50;50.80;;;;;;5118863;28;20166;-83
2021/12/21 20:10:24;;;;;;;23.48;3.53;;;19.50;51.10;;;;;;5102727;28;20569;-85
2021/12/21 20:12:53;;;;;;;19.77;3.10;;;19.60;50.90;;;;;;5134707;28;20171;-85
2021/12/21 20:15:19;;;;;;;21.55;2.80;;;19.50;51.50;;;;;;5100068;28;20167;-84
2021/12/21 20:17:47;;;;;;;25.67;3.70;;;19.50;51.30;;;;;;5115936;28;20219;-84
2021/12/21 20:20:16;;;;;;;19.50;3.03;;;19.50;50.80;;;;;;5116305;28;20625;-84
2021/12/21 20:22:42;;;;;;;24.10;3.03;;;19.50;50.50;;;;;;5116326;28;20151;-84
2021/12/21 20:25:08;;;;;;;25.40;2.85;;;19.50;51.30;;;;;;5115475;28;20194;-84
2021/12/21 20:27:35;;;;;;;25.13;3.17;;;19.50;50.80;;;;;;5132479;28;20173;-85
2021/12/21 20:30:02;;;;;;;30.42;3.40;;;19.50;51.30;;;;;;5098899;28;20540;-84
2021/12/21 20:32:31;;;;;;;25.52;3.40;;;19.50;51.30;;;;;;5102896;27;20167;-84
2021/12/21 20:34:57;;;;;;;19.20;3.60;;;19.50;51.50;;;;;;5120305;27;20160;-84
2021/12/21 20:37:23;;;;;;;25.02;3.30;;;19.40;51.90;;;;;;5119336;27;20158;-84
2021/12/21 20:39:49;;;;;;;15.02;2.90;;;19.50;51.20;;;;;;5100543;27;20172;-84
2021/12/21 20:42:15;;;;;;;16.20;2.97;;;19.50;51.40;;;;;;5099490;27;20240;-83
2021/12/21 20:44:41;;;;;;;14.82;3.08;;;19.50;50.80;;;;;;5134143;27;20226;-84
2021/12/21 20:47:06;;;;;;;22.85;3.80;;;19.40;51.20;;;;;;5134805;27;20182;-84
2021/12/21 20:49:33;;;;;;;16.67;3.17;;;19.50;50.80;;;;;;5100372;27;20203;-84
2021/12/21 20:52:02;;;;;;;20.38;4.00;;;19.50;51.10;;;;;;5117676;27;20510;-85
2021/12/21 20:54:28;;;;;;;18.88;3.45;;;19.50;51.30;;;;;;5102314;27;20234;-84
2021/12/21 20:56:53;;;;;;;19.95;3.05;;;19.50;51.10;;;;;;5119975;27;20501;-84
2021/12/21 20:59:19;;;;;;;18.77;3.50;;;19.50;51.40;;;;;;5119167;27;20163;-84
2021/12/21 21:01:45;;;;;;;14.63;3.17;;;19.40;50.80;;;;;;5136366;27;20216;-84
2021/12/21 21:04:11;;;;;;;16.73;3.28;;;19.50;50.70;;;;;;5102343;27;20344;-85
2021/12/21 21:06:36;;;;;;;15.65;5.07;;;19.40;51.00;;;;;;5135856;27;20158;-83
2021/12/21 21:09:02;;;;;;;18.75;3.78;;;19.40;50.70;;;;;;5136078;27;20663;-84
2021/12/21 21:11:29;;;;;;;23.33;3.20;;;19.50;50.90;;;;;;5118784;27;20159;-85
2021/12/21 21:13:54;;;;;;;15.07;3.00;;;19.40;51.70;;;;;;5135994;27;20163;-84
2021/12/21 21:16:20;;;;;;;10.07;2.92;;;19.50;51.80;;;;;;5136459;27;20163;-84
2021/12/21 21:18:46;;;;;;;14.52;3.20;;;19.40;51.60;;;;;;5101970;27;20167;-84
2021/12/21 21:21:11;;;;;;;14.75;3.00;;;19.50;51.40;;;;;;5101036;27;20152;-85
2021/12/21 21:23:40;;;;;;;16.80;3.00;;;19.50;51.30;;;;;;5135034;27;20174;-84
2021/12/21 21:26:06;;;;;;;15.38;3.35;;;19.50;51.30;;;;;;5101613;27;20163;-85
2021/12/21 21:28:31;;;;;;;15.23;3.08;;;19.50;51.40;;;;;;5100658;27;20242;-84
2021/12/21 21:30:57;;;;;;;11.93;3.03;;;19.40;51.40;;;;;;5117817;27;20191;-84
2021/12/21 21:33:23;;;;;;;13.35;2.90;;;19.40;51.30;;;;;;5117860;27;20544;-84
2021/12/21 21:35:50;;;;;;;7.50;2.40;;;19.40;51.30;;;;;;5100898;27;20167;-84
2021/12/21 21:38:17;;;;;;;14.10;2.88;;;19.40;51.40;;;;;;5118890;27;20162;-85
2021/12/21 21:40:44;;;;;;;14.23;2.80;;;19.40;51.50;;;;;;5118611;27;20170;-84
2021/12/21 21:43:10;;;;;;;15.23;3.00;;;19.40;51.20;;;;;;5100920;27;20166;-84
2021/12/21 21:45:36;;;;;;;11.30;3.13;;;19.40;51.20;;;;;;5118292;27;20222;-84
2021/12/21 21:48:02;;;;;;;14.23;3.03;;;19.40;51.20;;;;;;5134894;27;20185;-84
2021/12/21 21:50:28;;;;;;;14.65;2.83;;;19.40;51.20;;;;;;5118178;27;20178;-84
2021/12/21 21:53:00;;;;;;;15.80;3.50;;;19.40;51.00;;;;;;5117888;27;20640;-85
2021/12/21 21:55:26;;;;;;;9.60;2.95;;;19.40;51.10;;;;;;5135329;27;20242;-86
2021/12/21 21:57:52;;;;;;;8.52;3.10;;;19.30;51.00;;;;;;5117762;27;20187;-85
2021/12/21 22:00:17;;;;;;;17.75;3.00;;;19.30;51.00;;;;;;5135081;27;20185;-85
2021/12/21 22:02:45;;;;;;;11.77;3.38;;;19.30;51.30;;;;;;5117607;27;20159;-84
2021/12/21 22:05:11;;;;;;;12.02;2.70;;;19.30;51.50;;;;;;5117609;27;20660;-85
2021/12/21 22:07:37;;;;;;;13.50;2.92;;;19.30;52.00;;;;;;5100857;27;20164;-84
2021/12/21 22:10:03;;;;;;;9.15;2.55;;;19.20;52.30;;;;;;5117535;27;20148;-84
2021/12/21 22:12:29;;;;;;;14.25;2.63;;;19.20;52.70;;;;;;5100510;27;20165;-84
2021/12/21 22:14:55;;;;;;;15.00;2.80;;;19.10;52.60;;;;;;5134427;27;20230;-84
2021/12/21 22:17:20;;;;;;;12.02;3.10;;;19.10;52.80;;;;;;5134792;27;20235;-84
2021/12/21 22:19:46;;;;;;;10.82;2.67;;;19.10;52.70;;;;;;5117359;27;20167;-85
2021/12/21 22:22:11;;;;;;;12.48;2.47;;;19.10;52.80;;;;;;5100220;27;20536;-84
2021/12/21 22:24:37;;;;;;;13.63;2.75;;;19.00;52.80;;;;;;5117085;27;20191;-84
2021/12/21 22:27:03;;;;;;;11.48;2.63;;;19.10;53.00;;;;;;5117548;27;20170;-84
2021/12/21 22:29:29;;;;;;;11.95;2.50;;;19.00;52.90;;;;;;5100786;27;20170;-84
2021/12/21 22:31:54;;;;;;;11.27;2.50;;;19.00;53.20;;;;;;5100124;27;20595;-85
2021/12/21 22:34:21;;;;;;;14.77;2.50;;;19.00;53.10;;;;;;5117018;27;20278;-84
2021/12/21 22:36:46;;;;;;;13.38;2.78;;;18.90;53.00;;;;;;5099904;27;20159;-84
2021/12/21 22:39:12;;;;;;;8.70;2.67;;;19.00;53.10;;;;;;5100097;27;20182;-85
2021/12/21 22:41:38;;;;;;;15.30;2.78;;;19.00;53.20;;;;;;5099948;27;20163;-85
2021/12/21 22:44:05;;;;;;;15.23;2.80;;;19.00;53.50;;;;;;5116729;27;20226;-84
2021/12/21 22:46:31;;;;;;;11.15;2.70;;;18.80;53.30;;;;;;5117349;27;20170;-84
2021/12/21 22:48:57;;;;;;;10.40;2.35;;;18.90;53.30;;;;;;5099646;27;20249;-84
2021/12/21 22:51:22;;;;;;;12.00;2.55;;;18.90;53.40;;;;;;5133771;27;20148;-84
2021/12/21 22:53:48;;;;;;;11.95;2.92;;;18.80;53.40;;;;;;5116284;27;20170;-85
2021/12/21 22:56:14;;;;;;;9.63;2.40;;;18.80;53.40;;;;;;5133739;27;20143;-84
2021/12/21 22:58:40;;;;;;;7.95;2.85;;;18.80;53.40;;;;;;5133587;27;20464;-85
2021/12/21 23:01:06;;;;;;;9.30;2.22;;;18.80;53.50;;;;;;5133779;27;20280;-84
2021/12/21 23:03:33;;;;;;;9.23;2.83;;;18.80;53.60;;;;;;5133499;27;20151;-85
2021/12/21 23:05:59;;;;;;;9.10;2.10;;;18.80;53.50;;;;;;5133676;27;20151;-84
2021/12/21 23:08:25;;;;;;;10.80;2.45;;;18.80;53.70;;;;;;5099866;27;20181;-84
2021/12/21 23:10:51;;;;;;;10.50;2.45;;;18.70;53.70;;;;;;5116542;27;20620;-84
2021/12/21 23:13:16;;;;;;;12.45;2.50;;;18.70;53.70;;;;;;5116517;27;20147;-84
2021/12/21 23:15:48;;;;;;;13.90;2.60;;;18.70;53.70;;;;;;5116357;27;20156;-84
2021/12/21 23:18:14;;;;;;;11.65;2.70;;;18.70;53.80;;;;;;5100977;27;20247;-84
2021/12/21 23:20:39;;;;;;;10.23;2.50;;;18.70;53.70;;;;;;5133623;27;20155;-84
2021/12/21 23:23:05;;;;;;;12.15;2.58;;;18.70;53.80;;;;;;5099486;27;20167;-84
2021/12/21 23:25:31;;;;;;;11.02;2.97;;;18.70;53.70;;;;;;5116026;27;20194;-84
2021/12/21 23:27:58;;;;;;;11.00;2.70;;;18.60;53.70;;;;;;5116187;27;20155;-84
2021/12/21 23:30:23;;;;;;;6.65;2.30;;;18.70;53.80;;;;;;5099358;27;20519;-84
2021/12/21 23:32:49;;;;;;;10.90;2.30;;;18.70;53.90;;;;;;5116131;27;20242;-85
2021/12/21 23:35:15;;;;;;;12.07;2.40;;;18.60;53.80;;;;;;5116033;27;20212;-85
2021/12/21 23:37:41;;;;;;;7.72;2.63;;;18.70;53.90;;;;;;5099128;27;20156;-84
2021/12/21 23:40:09;;;;;;;7.32;2.60;;;18.60;53.80;;;;;;5099191;28;20569;-84
2021/12/21 23:42:35;;;;;;;11.88;2.38;;;18.70;53.80;;;;;;5099244;28;20250;-84
2021/12/21 23:45:01;;;;;;;10.43;2.83;;;18.60;53.80;;;;;;5132821;28;20364;-85
2021/12/21 23:47:27;;;;;;;9.65;2.45;;;18.60;53.70;;;;;;5116205;28;20151;-84
2021/12/21 23:49:53;;;;;;;7.93;2.40;;;18.60;53.70;;;;;;5133050;28;20155;-84
2021/12/21 23:52:19;;;;;;;10.65;2.70;;;18.60;53.80;;;;;;5133000;28;20178;-85
2021/12/21 23:54:46;;;;;;;7.43;2.70;;;18.60;53.80;;;;;;5099180;28;20167;-85
2021/12/21 23:57:12;;;;;;;10.82;2.58;;;18.60;53.70;;;;;;5098802;28;20164;-85
2021/12/21 23:59:38;;;;;;;8.68;2.83;;;18.60;53.80;;;;;;5115950;28;20152;-84
